Terminal Aerodrome Forecast
Issued by NWS

Home | Current Version | Previous Version | Text Only | Print | Product List | Glossary On
Versions: 1 2 3 4 5 6 7 8 9 10 11 12 13 14 15 16 17 18 19 20 21
000
FTUS46 KMTR 221740
TAFSTS
TAF
KSTS 221740Z 2218/2318 VRB04KT P6SM FEW020 FEW050
     FM230300 VRB03KT P6SM SCT025 BKN050
     FM230800 VRB02KT 1SM BR BKN002
     FM231200 VRB03KT 1/2SM FG OVC001=

USA.gov is the U.S. government's official web portal to all federal, state and local government web resources and services.